sensor_id;sensor_type;location;lat;lon;timestamp;P1;durP1;ratioP1;P2;durP2;ratioP2
20026;SDS011;10174;42.688;23.344;2023-02-28T00:02:19;65.57;;;29.65;;
20026;SDS011;10174;42.688;23.344;2023-02-28T00:04:44;67.10;;;28.20;;
20026;SDS011;10174;42.688;23.344;2023-02-28T00:07:11;65.43;;;28.23;;
20026;SDS011;10174;42.688;23.344;2023-02-28T00:09:36;72.50;;;30.50;;
20026;SDS011;10174;42.688;23.344;2023-02-28T00:12:01;62.65;;;27.75;;
20026;SDS011;10174;42.688;23.344;2023-02-28T00:14:35;69.10;;;28.27;;
20026;SDS011;10174;42.688;23.344;2023-02-28T00:17:00;67.65;;;29.30;;
20026;SDS011;10174;42.688;23.344;2023-02-28T00:19:26;68.80;;;28.50;;
20026;SDS011;10174;42.688;23.344;2023-02-28T00:21:51;65.15;;;28.02;;
20026;SDS011;10174;42.688;23.344;2023-02-28T00:24:16;63.85;;;27.40;;
20026;SDS011;10174;42.688;23.344;2023-02-28T00:26:42;63.55;;;26.88;;
20026;SDS011;10174;42.688;23.344;2023-02-28T00:29:07;65.47;;;27.90;;
20026;SDS011;10174;42.688;23.344;2023-02-28T00:31:32;70.22;;;29.65;;
20026;SDS011;10174;42.688;23.344;2023-02-28T00:33:58;65.78;;;28.25;;
20026;SDS011;10174;42.688;23.344;2023-02-28T00:36:23;71.45;;;30.67;;
20026;SDS011;10174;42.688;23.344;2023-02-28T00:38:49;78.57;;;33.05;;
20026;SDS011;10174;42.688;23.344;2023-02-28T00:41:14;77.55;;;31.35;;
20026;SDS011;10174;42.688;23.344;2023-02-28T00:43:40;66.20;;;28.38;;
20026;SDS011;10174;42.688;23.344;2023-02-28T00:46:05;69.82;;;30.42;;
20026;SDS011;10174;42.688;23.344;2023-02-28T00:48:31;72.93;;;30.08;;
20026;SDS011;10174;42.688;23.344;2023-02-28T00:50:57;72.07;;;30.27;;
20026;SDS011;10174;42.688;23.344;2023-02-28T00:53:22;72.50;;;30.25;;
20026;SDS011;10174;42.688;23.344;2023-02-28T00:55:48;74.60;;;31.38;;
20026;SDS011;10174;42.688;23.344;2023-02-28T00:58:14;76.50;;;31.85;;
20026;SDS011;10174;42.688;23.344;2023-02-28T01:00:40;71.95;;;31.65;;
20026;SDS011;10174;42.688;23.344;2023-02-28T01:03:05;73.50;;;31.48;;
20026;SDS011;10174;42.688;23.344;2023-02-28T01:05:31;74.95;;;32.25;;
20026;SDS011;10174;42.688;23.344;2023-02-28T01:07:56;78.53;;;31.92;;
20026;SDS011;10174;42.688;23.344;2023-02-28T01:10:21;77.93;;;31.35;;
20026;SDS011;10174;42.688;23.344;2023-02-28T01:12:47;78.65;;;32.50;;
20026;SDS011;10174;42.688;23.344;2023-02-28T01:15:12;76.80;;;30.27;;
20026;SDS011;10174;42.688;23.344;2023-02-28T01:17:38;79.57;;;32.47;;
20026;SDS011;10174;42.688;23.344;2023-02-28T01:20:03;75.10;;;30.67;;
20026;SDS011;10174;42.688;23.344;2023-02-28T01:22:29;82.38;;;32.80;;
20026;SDS011;10174;42.688;23.344;2023-02-28T01:24:54;71.80;;;31.17;;
20026;SDS011;10174;42.688;23.344;2023-02-28T01:27:20;75.60;;;32.88;;
20026;SDS011;10174;42.688;23.344;2023-02-28T01:29:45;83.13;;;31.75;;
20026;SDS011;10174;42.688;23.344;2023-02-28T01:32:10;82.15;;;33.05;;
20026;SDS011;10174;42.688;23.344;2023-02-28T01:34:36;75.95;;;31.92;;
20026;SDS011;10174;42.688;23.344;2023-02-28T01:37:01;74.30;;;31.52;;
20026;SDS011;10174;42.688;23.344;2023-02-28T01:39:28;78.28;;;32.88;;
20026;SDS011;10174;42.688;23.344;2023-02-28T01:41:54;78.90;;;30.60;;
20026;SDS011;10174;42.688;23.344;2023-02-28T01:47:22;79.00;;;31.98;;
20026;SDS011;10174;42.688;23.344;2023-02-28T01:49:52;78.70;;;31.75;;
20026;SDS011;10174;42.688;23.344;2023-02-28T01:52:17;74.40;;;31.48;;
20026;SDS011;10174;42.688;23.344;2023-02-28T01:54:54;76.80;;;31.33;;
20026;SDS011;10174;42.688;23.344;2023-02-28T01:57:32;77.43;;;29.77;;
20026;SDS011;10174;42.688;23.344;2023-02-28T02:00:04;78.70;;;30.17;;
20026;SDS011;10174;42.688;23.344;2023-02-28T02:02:39;83.13;;;32.22;;
20026;SDS011;10174;42.688;23.344;2023-02-28T02:05:20;80.20;;;30.98;;
20026;SDS011;10174;42.688;23.344;2023-02-28T02:07:52;79.00;;;30.75;;
20026;SDS011;10174;42.688;23.344;2023-02-28T02:10:29;79.82;;;31.02;;
20026;SDS011;10174;42.688;23.344;2023-02-28T02:15:44;74.10;;;31.05;;
20026;SDS011;10174;42.688;23.344;2023-02-28T02:38:08;80.50;;;33.30;;
20026;SDS011;10174;42.688;23.344;2023-02-28T02:40:43;84.32;;;32.30;;
20026;SDS011;10174;42.688;23.344;2023-02-28T02:43:25;87.72;;;34.83;;
20026;SDS011;10174;42.688;23.344;2023-02-28T02:46:04;97.30;;;35.25;;
20026;SDS011;10174;42.688;23.344;2023-02-28T02:48:35;83.10;;;33.15;;
20026;SDS011;10174;42.688;23.344;2023-02-28T02:51:05;81.85;;;32.78;;
20026;SDS011;10174;42.688;23.344;2023-02-28T02:53:38;82.05;;;33.80;;
20026;SDS011;10174;42.688;23.344;2023-02-28T02:56:09;90.90;;;33.90;;
20026;SDS011;10174;42.688;23.344;2023-02-28T02:58:37;78.68;;;32.47;;
20026;SDS011;10174;42.688;23.344;2023-02-28T03:01:07;87.63;;;35.88;;
20026;SDS011;10174;42.688;23.344;2023-02-28T03:03:35;102.45;;;37.80;;
20026;SDS011;10174;42.688;23.344;2023-02-28T03:06:01;89.95;;;34.65;;
20026;SDS011;10174;42.688;23.344;2023-02-28T03:08:28;84.20;;;33.63;;
20026;SDS011;10174;42.688;23.344;2023-02-28T03:10:59;78.22;;;32.28;;
20026;SDS011;10174;42.688;23.344;2023-02-28T03:21:39;91.88;;;34.38;;
20026;SDS011;10174;42.688;23.344;2023-02-28T03:27:04;94.18;;;34.70;;
20026;SDS011;10174;42.688;23.344;2023-02-28T03:29:45;98.90;;;36.40;;
20026;SDS011;10174;42.688;23.344;2023-02-28T03:32:27;95.72;;;34.78;;
20026;SDS011;10174;42.688;23.344;2023-02-28T03:35:08;92.85;;;34.88;;
20026;SDS011;10174;42.688;23.344;2023-02-28T03:37:46;107.78;;;36.15;;
20026;SDS011;10174;42.688;23.344;2023-02-28T03:40:25;101.18;;;35.95;;
20026;SDS011;10174;42.688;23.344;2023-02-28T03:42:56;101.20;;;36.88;;
20026;SDS011;10174;42.688;23.344;2023-02-28T03:45:31;110.70;;;37.53;;
20026;SDS011;10174;42.688;23.344;2023-02-28T03:48:12;111.65;;;38.30;;
20026;SDS011;10174;42.688;23.344;2023-02-28T03:50:51;123.70;;;43.30;;
20026;SDS011;10174;42.688;23.344;2023-02-28T03:53:27;120.03;;;40.45;;
20026;SDS011;10174;42.688;23.344;2023-02-28T03:56:17;124.47;;;41.55;;
20026;SDS011;10174;42.688;23.344;2023-02-28T04:01:20;127.15;;;42.70;;
20026;SDS011;10174;42.688;23.344;2023-02-28T04:03:52;123.88;;;41.85;;
20026;SDS011;10174;42.688;23.344;2023-02-28T04:06:19;120.03;;;40.88;;
20026;SDS011;10174;42.688;23.344;2023-02-28T04:08:46;119.88;;;40.25;;
20026;SDS011;10174;42.688;23.344;2023-02-28T04:11:29;127.25;;;47.22;;
20026;SDS011;10174;42.688;23.344;2023-02-28T04:14:02;131.70;;;45.03;;
20026;SDS011;10174;42.688;23.344;2023-02-28T04:16:28;124.95;;;41.53;;
20026;SDS011;10174;42.688;23.344;2023-02-28T04:18:54;121.43;;;41.92;;
20026;SDS011;10174;42.688;23.344;2023-02-28T04:21:28;108.05;;;36.92;;
20026;SDS011;10174;42.688;23.344;2023-02-28T04:23:54;98.47;;;36.15;;
20026;SDS011;10174;42.688;23.344;2023-02-28T04:26:20;108.35;;;37.97;;
20026;SDS011;10174;42.688;23.344;2023-02-28T04:28:45;106.18;;;38.97;;
20026;SDS011;10174;42.688;23.344;2023-02-28T04:31:11;114.07;;;38.33;;
20026;SDS011;10174;42.688;23.344;2023-02-28T04:33:36;113.47;;;37.58;;
20026;SDS011;10174;42.688;23.344;2023-02-28T04:36:06;115.47;;;38.70;;
20026;SDS011;10174;42.688;23.344;2023-02-28T04:38:34;116.90;;;38.83;;
20026;SDS011;10174;42.688;23.344;2023-02-28T04:41:02;125.40;;;40.10;;
20026;SDS011;10174;42.688;23.344;2023-02-28T04:43:29;122.97;;;41.60;;
20026;SDS011;10174;42.688;23.344;2023-02-28T04:45:55;114.72;;;38.50;;
20026;SDS011;10174;42.688;23.344;2023-02-28T04:48:22;109.53;;;39.05;;
20026;SDS011;10174;42.688;23.344;2023-02-28T04:50:49;120.30;;;40.13;;
20026;SDS011;10174;42.688;23.344;2023-02-28T04:53:15;112.30;;;38.92;;
20026;SDS011;10174;42.688;23.344;2023-02-28T04:55:41;120.78;;;41.22;;
20026;SDS011;10174;42.688;23.344;2023-02-28T04:58:06;133.45;;;39.65;;
20026;SDS011;10174;42.688;23.344;2023-02-28T05:00:31;135.98;;;38.38;;
20026;SDS011;10174;42.688;23.344;2023-02-28T05:02:57;115.45;;;38.67;;
20026;SDS011;10174;42.688;23.344;2023-02-28T05:05:22;113.28;;;37.38;;
20026;SDS011;10174;42.688;23.344;2023-02-28T05:07:47;115.47;;;39.20;;
20026;SDS011;10174;42.688;23.344;2023-02-28T05:10:13;112.63;;;37.53;;
20026;SDS011;10174;42.688;23.344;2023-02-28T05:12:38;107.57;;;36.28;;
20026;SDS011;10174;42.688;23.344;2023-02-28T05:15:04;114.57;;;41.55;;
20026;SDS011;10174;42.688;23.344;2023-02-28T05:17:30;111.78;;;39.92;;
20026;SDS011;10174;42.688;23.344;2023-02-28T05:19:56;108.75;;;38.58;;
20026;SDS011;10174;42.688;23.344;2023-02-28T05:22:21;129.40;;;41.95;;
20026;SDS011;10174;42.688;23.344;2023-02-28T05:24:47;131.90;;;42.83;;
20026;SDS011;10174;42.688;23.344;2023-02-28T05:27:12;127.85;;;42.88;;
20026;SDS011;10174;42.688;23.344;2023-02-28T05:29:38;135.65;;;44.03;;
20026;SDS011;10174;42.688;23.344;2023-02-28T05:32:10;124.80;;;40.63;;
20026;SDS011;10174;42.688;23.344;2023-02-28T05:34:37;149.07;;;49.13;;
20026;SDS011;10174;42.688;23.344;2023-02-28T05:37:04;156.40;;;47.42;;
20026;SDS011;10174;42.688;23.344;2023-02-28T05:39:30;150.70;;;47.33;;
20026;SDS011;10174;42.688;23.344;2023-02-28T05:41:56;155.85;;;47.40;;
20026;SDS011;10174;42.688;23.344;2023-02-28T05:44:21;138.65;;;46.78;;
20026;SDS011;10174;42.688;23.344;2023-02-28T05:46:46;145.30;;;46.17;;
20026;SDS011;10174;42.688;23.344;2023-02-28T05:49:12;149.95;;;49.17;;
20026;SDS011;10174;42.688;23.344;2023-02-28T05:51:37;158.00;;;48.15;;
20026;SDS011;10174;42.688;23.344;2023-02-28T05:54:05;164.18;;;52.17;;
20026;SDS011;10174;42.688;23.344;2023-02-28T05:56:31;147.25;;;49.47;;
20026;SDS011;10174;42.688;23.344;2023-02-28T05:58:56;142.98;;;48.40;;
20026;SDS011;10174;42.688;23.344;2023-02-28T06:03:49;150.63;;;46.92;;
20026;SDS011;10174;42.688;23.344;2023-02-28T06:06:15;145.82;;;49.13;;
20026;SDS011;10174;42.688;23.344;2023-02-28T06:08:40;158.82;;;51.13;;
20026;SDS011;10174;42.688;23.344;2023-02-28T06:11:05;160.82;;;50.28;;
20026;SDS011;10174;42.688;23.344;2023-02-28T06:13:31;140.25;;;48.00;;
20026;SDS011;10174;42.688;23.344;2023-02-28T06:16:00;154.65;;;54.28;;
20026;SDS011;10174;42.688;23.344;2023-02-28T06:18:25;147.77;;;49.88;;
20026;SDS011;10174;42.688;23.344;2023-02-28T06:20:54;148.05;;;54.15;;
20026;SDS011;10174;42.688;23.344;2023-02-28T06:23:20;132.13;;;47.28;;
20026;SDS011;10174;42.688;23.344;2023-02-28T06:25:46;125.55;;;46.72;;
20026;SDS011;10174;42.688;23.344;2023-02-28T06:28:12;126.88;;;49.05;;
20026;SDS011;10174;42.688;23.344;2023-02-28T06:30:38;125.45;;;46.85;;
20026;SDS011;10174;42.688;23.344;2023-02-28T06:33:04;179.60;;;66.95;;
20026;SDS011;10174;42.688;23.344;2023-02-28T06:35:29;185.80;;;76.20;;
20026;SDS011;10174;42.688;23.344;2023-02-28T06:37:55;127.97;;;47.20;;
20026;SDS011;10174;42.688;23.344;2023-02-28T06:40:20;132.27;;;49.17;;
20026;SDS011;10174;42.688;23.344;2023-02-28T06:42:46;137.20;;;48.72;;
20026;SDS011;10174;42.688;23.344;2023-02-28T06:45:11;123.55;;;44.70;;
20026;SDS011;10174;42.688;23.344;2023-02-28T06:47:38;134.48;;;47.67;;
20026;SDS011;10174;42.688;23.344;2023-02-28T06:50:05;130.10;;;47.00;;
20026;SDS011;10174;42.688;23.344;2023-02-28T06:52:31;117.53;;;43.75;;
20026;SDS011;10174;42.688;23.344;2023-02-28T06:54:56;114.25;;;42.13;;
20026;SDS011;10174;42.688;23.344;2023-02-28T06:57:28;102.43;;;39.13;;
20026;SDS011;10174;42.688;23.344;2023-02-28T06:59:56;106.25;;;40.67;;
20026;SDS011;10174;42.688;23.344;2023-02-28T07:02:25;104.32;;;40.42;;
20026;SDS011;10174;42.688;23.344;2023-02-28T07:04:51;98.35;;;40.92;;
20026;SDS011;10174;42.688;23.344;2023-02-28T07:07:16;97.22;;;39.65;;
20026;SDS011;10174;42.688;23.344;2023-02-28T07:09:41;109.22;;;41.17;;
20026;SDS011;10174;42.688;23.344;2023-02-28T07:12:07;100.75;;;40.45;;
20026;SDS011;10174;42.688;23.344;2023-02-28T07:14:32;99.10;;;41.03;;
20026;SDS011;10174;42.688;23.344;2023-02-28T07:16:57;91.10;;;39.45;;
20026;SDS011;10174;42.688;23.344;2023-02-28T07:19:23;101.85;;;40.17;;
20026;SDS011;10174;42.688;23.344;2023-02-28T07:21:48;103.93;;;41.13;;
20026;SDS011;10174;42.688;23.344;2023-02-28T07:24:14;115.47;;;43.70;;
20026;SDS011;10174;42.688;23.344;2023-02-28T07:26:41;117.28;;;44.38;;
20026;SDS011;10174;42.688;23.344;2023-02-28T07:29:06;113.32;;;43.63;;
20026;SDS011;10174;42.688;23.344;2023-02-28T07:31:32;124.07;;;44.80;;
20026;SDS011;10174;42.688;23.344;2023-02-28T07:33:57;125.30;;;45.05;;
20026;SDS011;10174;42.688;23.344;2023-02-28T07:36:23;125.55;;;46.00;;
20026;SDS011;10174;42.688;23.344;2023-02-28T07:38:49;125.93;;;44.75;;
20026;SDS011;10174;42.688;23.344;2023-02-28T07:41:15;118.63;;;48.28;;
20026;SDS011;10174;42.688;23.344;2023-02-28T07:43:42;123.40;;;44.45;;
20026;SDS011;10174;42.688;23.344;2023-02-28T07:46:08;118.10;;;47.42;;
20026;SDS011;10174;42.688;23.344;2023-02-28T07:48:36;118.18;;;44.03;;
20026;SDS011;10174;42.688;23.344;2023-02-28T07:51:02;121.03;;;45.55;;
20026;SDS011;10174;42.688;23.344;2023-02-28T07:53:28;121.05;;;46.20;;
20026;SDS011;10174;42.688;23.344;2023-02-28T07:55:55;119.18;;;47.53;;
20026;SDS011;10174;42.688;23.344;2023-02-28T07:58:22;106.20;;;44.25;;
20026;SDS011;10174;42.688;23.344;2023-02-28T08:00:49;111.00;;;45.33;;
20026;SDS011;10174;42.688;23.344;2023-02-28T08:03:14;115.93;;;44.38;;
20026;SDS011;10174;42.688;23.344;2023-02-28T08:05:40;109.57;;;47.30;;
20026;SDS011;10174;42.688;23.344;2023-02-28T08:08:06;108.55;;;42.08;;
20026;SDS011;10174;42.688;23.344;2023-02-28T08:10:32;109.80;;;45.97;;
20026;SDS011;10174;42.688;23.344;2023-02-28T08:12:57;122.93;;;49.83;;
20026;SDS011;10174;42.688;23.344;2023-02-28T08:15:23;100.60;;;43.75;;
20026;SDS011;10174;42.688;23.344;2023-02-28T08:17:48;125.93;;;52.83;;
20026;SDS011;10174;42.688;23.344;2023-02-28T08:20:13;111.53;;;45.35;;
20026;SDS011;10174;42.688;23.344;2023-02-28T08:22:39;99.05;;;41.38;;
20026;SDS011;10174;42.688;23.344;2023-02-28T08:25:04;91.30;;;39.70;;
20026;SDS011;10174;42.688;23.344;2023-02-28T08:27:32;90.53;;;38.72;;
20026;SDS011;10174;42.688;23.344;2023-02-28T08:29:57;86.10;;;38.22;;
20026;SDS011;10174;42.688;23.344;2023-02-28T08:32:23;88.05;;;40.13;;
20026;SDS011;10174;42.688;23.344;2023-02-28T08:34:48;90.05;;;41.38;;
20026;SDS011;10174;42.688;23.344;2023-02-28T08:37:13;94.80;;;41.60;;
20026;SDS011;10174;42.688;23.344;2023-02-28T08:39:39;98.00;;;45.88;;
20026;SDS011;10174;42.688;23.344;2023-02-28T08:42:04;94.00;;;42.78;;
20026;SDS011;10174;42.688;23.344;2023-02-28T08:44:30;104.75;;;44.92;;
20026;SDS011;10174;42.688;23.344;2023-02-28T08:46:55;88.88;;;40.20;;
20026;SDS011;10174;42.688;23.344;2023-02-28T08:49:21;94.72;;;42.45;;
20026;SDS011;10174;42.688;23.344;2023-02-28T08:51:46;89.60;;;39.78;;
20026;SDS011;10174;42.688;23.344;2023-02-28T08:54:11;92.97;;;43.38;;
20026;SDS011;10174;42.688;23.344;2023-02-28T08:56:37;94.90;;;40.63;;
20026;SDS011;10174;42.688;23.344;2023-02-28T08:59:04;83.95;;;34.83;;
20026;SDS011;10174;42.688;23.344;2023-02-28T09:01:29;79.47;;;29.85;;
20026;SDS011;10174;42.688;23.344;2023-02-28T09:03:56;99.32;;;33.95;;
20026;SDS011;10174;42.688;23.344;2023-02-28T09:06:24;82.80;;;32.88;;
20026;SDS011;10174;42.688;23.344;2023-02-28T09:08:51;87.65;;;27.75;;
20026;SDS011;10174;42.688;23.344;2023-02-28T09:11:17;61.67;;;24.67;;
20026;SDS011;10174;42.688;23.344;2023-02-28T09:13:44;63.05;;;24.67;;
20026;SDS011;10174;42.688;23.344;2023-02-28T09:16:11;56.47;;;23.98;;
20026;SDS011;10174;42.688;23.344;2023-02-28T09:18:39;66.10;;;23.73;;
20026;SDS011;10174;42.688;23.344;2023-02-28T09:21:06;59.97;;;24.52;;
20026;SDS011;10174;42.688;23.344;2023-02-28T09:23:33;60.50;;;22.27;;
20026;SDS011;10174;42.688;23.344;2023-02-28T09:25:58;60.78;;;23.88;;
20026;SDS011;10174;42.688;23.344;2023-02-28T09:28:24;57.13;;;22.38;;
20026;SDS011;10174;42.688;23.344;2023-02-28T09:30:50;52.92;;;21.73;;
20026;SDS011;10174;42.688;23.344;2023-02-28T09:33:17;54.97;;;23.70;;
20026;SDS011;10174;42.688;23.344;2023-02-28T09:35:45;56.95;;;21.55;;
20026;SDS011;10174;42.688;23.344;2023-02-28T09:38:11;60.25;;;23.33;;
20026;SDS011;10174;42.688;23.344;2023-02-28T09:40:53;56.83;;;22.15;;
20026;SDS011;10174;42.688;23.344;2023-02-28T09:43:21;49.33;;;20.65;;
20026;SDS011;10174;42.688;23.344;2023-02-28T09:45:54;50.95;;;21.52;;
20026;SDS011;10174;42.688;23.344;2023-02-28T09:48:34;53.97;;;21.40;;
20026;SDS011;10174;42.688;23.344;2023-02-28T09:51:05;62.17;;;22.65;;
20026;SDS011;10174;42.688;23.344;2023-02-28T09:53:48;52.78;;;21.67;;
20026;SDS011;10174;42.688;23.344;2023-02-28T09:56:29;50.17;;;21.60;;
20026;SDS011;10174;42.688;23.344;2023-02-28T09:59:00;55.25;;;20.75;;
20026;SDS011;10174;42.688;23.344;2023-02-28T10:01:39;52.10;;;20.35;;
20026;SDS011;10174;42.688;23.344;2023-02-28T10:04:12;60.25;;;19.50;;
20026;SDS011;10174;42.688;23.344;2023-02-28T10:06:55;49.33;;;18.67;;
20026;SDS011;10174;42.688;23.344;2023-02-28T10:09:26;50.85;;;19.88;;
20026;SDS011;10174;42.688;23.344;2023-02-28T10:11:59;51.97;;;18.98;;
20026;SDS011;10174;42.688;23.344;2023-02-28T10:14:28;43.80;;;17.80;;
20026;SDS011;10174;42.688;23.344;2023-02-28T10:20:04;42.60;;;17.10;;
20026;SDS011;10174;42.688;23.344;2023-02-28T10:25:25;54.67;;;20.25;;
20026;SDS011;10174;42.688;23.344;2023-02-28T10:28:11;51.05;;;18.60;;
20026;SDS011;10174;42.688;23.344;2023-02-28T10:30:39;53.00;;;17.88;;
20026;SDS011;10174;42.688;23.344;2023-02-28T10:33:11;50.50;;;17.55;;
20026;SDS011;10174;42.688;23.344;2023-02-28T10:35:47;51.17;;;17.35;;
20026;SDS011;10174;42.688;23.344;2023-02-28T10:38:17;45.13;;;16.23;;
20026;SDS011;10174;42.688;23.344;2023-02-28T10:40:45;54.10;;;17.25;;
20026;SDS011;10174;42.688;23.344;2023-02-28T10:45:40;51.22;;;17.23;;
20026;SDS011;10174;42.688;23.344;2023-02-28T11:01:27;36.25;;;14.05;;
20026;SDS011;10174;42.688;23.344;2023-02-28T11:06:47;46.83;;;16.33;;
20026;SDS011;10174;42.688;23.344;2023-02-28T11:09:32;38.80;;;16.55;;
20026;SDS011;10174;42.688;23.344;2023-02-28T11:11:58;36.63;;;15.93;;
20026;SDS011;10174;42.688;23.344;2023-02-28T11:14:25;49.10;;;17.15;;
20026;SDS011;10174;42.688;23.344;2023-02-28T11:16:53;42.13;;;19.10;;
20026;SDS011;10174;42.688;23.344;2023-02-28T11:19:25;43.38;;;16.38;;
20026;SDS011;10174;42.688;23.344;2023-02-28T11:21:56;32.63;;;14.70;;
20026;SDS011;10174;42.688;23.344;2023-02-28T11:24:35;45.55;;;17.35;;
20026;SDS011;10174;42.688;23.344;2023-02-28T11:27:05;58.00;;;16.73;;
20026;SDS011;10174;42.688;23.344;2023-02-28T11:29:33;38.75;;;15.40;;
20026;SDS011;10174;42.688;23.344;2023-02-28T11:32:12;37.25;;;16.27;;
20026;SDS011;10174;42.688;23.344;2023-02-28T11:34:41;52.10;;;16.67;;
20026;SDS011;10174;42.688;23.344;2023-02-28T11:37:12;41.03;;;15.60;;
20026;SDS011;10174;42.688;23.344;2023-02-28T11:39:43;47.38;;;16.70;;
20026;SDS011;10174;42.688;23.344;2023-02-28T11:42:26;32.78;;;14.57;;
20026;SDS011;10174;42.688;23.344;2023-02-28T11:45:03;50.97;;;17.23;;
20026;SDS011;10174;42.688;23.344;2023-02-28T11:47:36;53.90;;;19.52;;
20026;SDS011;10174;42.688;23.344;2023-02-28T11:52:51;42.08;;;15.93;;
20026;SDS011;10174;42.688;23.344;2023-02-28T12:09:34;46.00;;;15.35;;
20026;SDS011;10174;42.688;23.344;2023-02-28T12:28:13;43.63;;;16.88;;
20026;SDS011;10174;42.688;23.344;2023-02-28T12:30:49;45.15;;;20.40;;
20026;SDS011;10174;42.688;23.344;2023-02-28T12:33:20;47.92;;;18.13;;
20026;SDS011;10174;42.688;23.344;2023-02-28T12:38:26;49.80;;;17.25;;
20026;SDS011;10174;42.688;23.344;2023-02-28T12:41:00;41.92;;;16.40;;
20026;SDS011;10174;42.688;23.344;2023-02-28T12:43:33;47.80;;;17.38;;
20026;SDS011;10174;42.688;23.344;2023-02-28T12:46:03;45.65;;;17.88;;
20026;SDS011;10174;42.688;23.344;2023-02-28T12:48:46;42.97;;;18.20;;
20026;SDS011;10174;42.688;23.344;2023-02-28T12:51:16;52.05;;;18.13;;
20026;SDS011;10174;42.688;23.344;2023-02-28T12:53:53;44.63;;;16.73;;
20026;SDS011;10174;42.688;23.344;2023-02-28T12:56:37;44.58;;;16.88;;
20026;SDS011;10174;42.688;23.344;2023-02-28T13:01:42;42.53;;;16.55;;
20026;SDS011;10174;42.688;23.344;2023-02-28T13:10:05;53.97;;;18.65;;
20026;SDS011;10174;42.688;23.344;2023-02-28T13:12:32;47.67;;;15.88;;
20026;SDS011;10174;42.688;23.344;2023-02-28T13:15:13;44.65;;;16.10;;
20026;SDS011;10174;42.688;23.344;2023-02-28T13:17:48;43.83;;;16.90;;
20026;SDS011;10174;42.688;23.344;2023-02-28T13:20:19;51.20;;;17.80;;
20026;SDS011;10174;42.688;23.344;2023-02-28T13:22:59;49.03;;;16.48;;
20026;SDS011;10174;42.688;23.344;2023-02-28T13:27:57;60.08;;;20.15;;
20026;SDS011;10174;42.688;23.344;2023-02-28T13:33:32;42.05;;;17.30;;
20026;SDS011;10174;42.688;23.344;2023-02-28T13:38:37;43.15;;;16.40;;
20026;SDS011;10174;42.688;23.344;2023-02-28T13:44:01;51.25;;;16.75;;
20026;SDS011;10174;42.688;23.344;2023-02-28T13:46:32;44.33;;;16.70;;
20026;SDS011;10174;42.688;23.344;2023-02-28T14:09:02;32.05;;;13.75;;
20026;SDS011;10174;42.688;23.344;2023-02-28T14:11:42;45.85;;;16.23;;
20026;SDS011;10174;42.688;23.344;2023-02-28T14:14:09;45.88;;;15.25;;
20026;SDS011;10174;42.688;23.344;2023-02-28T14:17:00;61.83;;;18.98;;
20026;SDS011;10174;42.688;23.344;2023-02-28T14:19:28;48.25;;;16.95;;
20026;SDS011;10174;42.688;23.344;2023-02-28T14:22:00;54.03;;;17.13;;
20026;SDS011;10174;42.688;23.344;2023-02-28T14:41:15;43.90;;;17.20;;
20026;SDS011;10174;42.688;23.344;2023-02-28T14:43:52;46.05;;;16.30;;
20026;SDS011;10174;42.688;23.344;2023-02-28T14:46:20;47.03;;;18.70;;
20026;SDS011;10174;42.688;23.344;2023-02-28T14:48:49;59.80;;;18.48;;
20026;SDS011;10174;42.688;23.344;2023-02-28T14:51:20;38.95;;;16.10;;
20026;SDS011;10174;42.688;23.344;2023-02-28T14:53:51;45.42;;;15.10;;
20026;SDS011;10174;42.688;23.344;2023-02-28T14:56:23;42.42;;;14.70;;
20026;SDS011;10174;42.688;23.344;2023-02-28T14:58:58;44.40;;;14.27;;
20026;SDS011;10174;42.688;23.344;2023-02-28T15:01:24;39.28;;;15.05;;
20026;SDS011;10174;42.688;23.344;2023-02-28T15:03:57;43.38;;;15.80;;
20026;SDS011;10174;42.688;23.344;2023-02-28T15:06:25;41.13;;;15.18;;
20026;SDS011;10174;42.688;23.344;2023-02-28T15:11:45;46.53;;;15.38;;
20026;SDS011;10174;42.688;23.344;2023-02-28T15:14:17;42.13;;;14.23;;
20026;SDS011;10174;42.688;23.344;2023-02-28T15:16:46;41.03;;;15.07;;
20026;SDS011;10174;42.688;23.344;2023-02-28T15:19:22;50.35;;;15.13;;
20026;SDS011;10174;42.688;23.344;2023-02-28T15:21:55;58.33;;;21.30;;
20026;SDS011;10174;42.688;23.344;2023-02-28T15:27:12;46.30;;;12.32;;
20026;SDS011;10174;42.688;23.344;2023-02-28T15:29:45;29.63;;;13.60;;
20026;SDS011;10174;42.688;23.344;2023-02-28T15:32:28;45.58;;;14.00;;
20026;SDS011;10174;42.688;23.344;2023-02-28T15:34:57;43.72;;;13.48;;
20026;SDS011;10174;42.688;23.344;2023-02-28T15:40:12;36.95;;;13.98;;
20026;SDS011;10174;42.688;23.344;2023-02-28T15:42:41;39.92;;;14.02;;
20026;SDS011;10174;42.688;23.344;2023-02-28T15:45:27;33.80;;;14.10;;
20026;SDS011;10174;42.688;23.344;2023-02-28T15:48:06;43.20;;;14.60;;
20026;SDS011;10174;42.688;23.344;2023-02-28T15:50:52;42.85;;;15.15;;
20026;SDS011;10174;42.688;23.344;2023-02-28T15:53:30;34.85;;;14.27;;
20026;SDS011;10174;42.688;23.344;2023-02-28T15:56:00;36.63;;;14.88;;
20026;SDS011;10174;42.688;23.344;2023-02-28T15:58:27;25.98;;;12.68;;
20026;SDS011;10174;42.688;23.344;2023-02-28T16:01:01;29.30;;;14.27;;
20026;SDS011;10174;42.688;23.344;2023-02-28T16:03:55;34.75;;;15.05;;
20026;SDS011;10174;42.688;23.344;2023-02-28T16:06:26;31.92;;;14.05;;
20026;SDS011;10174;42.688;23.344;2023-02-28T16:08:58;42.60;;;19.33;;
20026;SDS011;10174;42.688;23.344;2023-02-28T16:11:23;106.28;;;47.22;;
20026;SDS011;10174;42.688;23.344;2023-02-28T16:13:49;107.90;;;49.25;;
20026;SDS011;10174;42.688;23.344;2023-02-28T16:16:21;117.47;;;50.70;;
20026;SDS011;10174;42.688;23.344;2023-02-28T16:18:49;106.53;;;48.10;;
20026;SDS011;10174;42.688;23.344;2023-02-28T16:21:14;74.45;;;34.75;;
20026;SDS011;10174;42.688;23.344;2023-02-28T16:23:40;57.58;;;24.70;;
20026;SDS011;10174;42.688;23.344;2023-02-28T16:26:06;45.85;;;23.02;;
20026;SDS011;10174;42.688;23.344;2023-02-28T16:28:34;45.05;;;20.77;;
20026;SDS011;10174;42.688;23.344;2023-02-28T16:31:03;44.20;;;18.75;;
20026;SDS011;10174;42.688;23.344;2023-02-28T16:33:31;36.15;;;15.57;;
20026;SDS011;10174;42.688;23.344;2023-02-28T16:35:58;28.85;;;13.15;;
20026;SDS011;10174;42.688;23.344;2023-02-28T16:38:24;34.25;;;14.05;;
20026;SDS011;10174;42.688;23.344;2023-02-28T16:40:51;23.13;;;11.75;;
20026;SDS011;10174;42.688;23.344;2023-02-28T16:43:18;27.08;;;12.45;;
20026;SDS011;10174;42.688;23.344;2023-02-28T16:45:47;27.17;;;11.40;;
20026;SDS011;10174;42.688;23.344;2023-02-28T16:48:13;24.98;;;11.32;;
20026;SDS011;10174;42.688;23.344;2023-02-28T16:50:41;25.67;;;12.07;;
20026;SDS011;10174;42.688;23.344;2023-02-28T16:53:09;28.27;;;11.35;;
20026;SDS011;10174;42.688;23.344;2023-02-28T16:55:35;28.92;;;10.85;;
20026;SDS011;10174;42.688;23.344;2023-02-28T16:58:01;24.17;;;10.65;;
20026;SDS011;10174;42.688;23.344;2023-02-28T17:00:28;34.38;;;10.90;;
20026;SDS011;10174;42.688;23.344;2023-02-28T17:02:55;27.85;;;11.95;;